sensor_id;sensor_type;location;lat;lon;timestamp;P1;durP1;ratioP1;P2;durP2;ratioP2
76393;SDS011;65216;51.090;-115.352;2023-07-13T00:00:30;18.40;;;5.80;;
76393;SDS011;65216;51.090;-115.352;2023-07-13T00:02:58;22.60;;;5.80;;
76393;SDS011;65216;51.090;-115.352;2023-07-13T00:05:25;10.60;;;5.60;;
76393;SDS011;65216;51.090;-115.352;2023-07-13T00:07:53;17.80;;;5.40;;
76393;SDS011;65216;51.090;-115.352;2023-07-13T00:10:24;17.20;;;5.30;;
76393;SDS011;65216;51.090;-115.352;2023-07-13T00:12:54;19.40;;;5.90;;
76393;SDS011;65216;51.090;-115.352;2023-07-13T00:15:26;21.40;;;5.80;;
76393;SDS011;65216;51.090;-115.352;2023-07-13T00:17:54;22.60;;;6.00;;
76393;SDS011;65216;51.090;-115.352;2023-07-13T00:20:23;25.00;;;6.50;;
76393;SDS011;65216;51.090;-115.352;2023-07-13T00:22:52;28.30;;;6.40;;
76393;SDS011;65216;51.090;-115.352;2023-07-13T00:25:22;23.00;;;6.20;;
76393;SDS011;65216;51.090;-115.352;2023-07-13T00:27:53;18.80;;;6.20;;
76393;SDS011;65216;51.090;-115.352;2023-07-13T00:30:20;18.40;;;6.70;;
76393;SDS011;65216;51.090;-115.352;2023-07-13T00:32:47;26.10;;;7.20;;
76393;SDS011;65216;51.090;-115.352;2023-07-13T00:35:15;30.20;;;7.60;;
76393;SDS011;65216;51.090;-115.352;2023-07-13T00:37:42;19.50;;;7.00;;
76393;SDS011;65216;51.090;-115.352;2023-07-13T00:40:11;27.70;;;7.70;;
76393;SDS011;65216;51.090;-115.352;2023-07-13T00:42:42;29.00;;;8.00;;
76393;SDS011;65216;51.090;-115.352;2023-07-13T00:47:40;28.30;;;7.60;;
76393;SDS011;65216;51.090;-115.352;2023-07-13T00:50:10;33.00;;;7.70;;
76393;SDS011;65216;51.090;-115.352;2023-07-13T00:52:43;25.00;;;7.00;;
76393;SDS011;65216;51.090;-115.352;2023-07-13T00:55:14;22.40;;;7.50;;
76393;SDS011;65216;51.090;-115.352;2023-07-13T00:57:43;32.80;;;8.10;;
76393;SDS011;65216;51.090;-115.352;2023-07-13T01:00:12;23.50;;;7.20;;
76393;SDS011;65216;51.090;-115.352;2023-07-13T01:02:42;26.10;;;8.10;;
76393;SDS011;65216;51.090;-115.352;2023-07-13T01:05:22;32.90;;;8.90;;
76393;SDS011;65216;51.090;-115.352;2023-07-13T01:07:51;31.30;;;7.90;;
76393;SDS011;65216;51.090;-115.352;2023-07-13T01:10:22;29.50;;;8.10;;
76393;SDS011;65216;51.090;-115.352;2023-07-13T01:12:50;20.10;;;7.30;;
76393;SDS011;65216;51.090;-115.352;2023-07-13T01:15:40;30.50;;;7.80;;
76393;SDS011;65216;51.090;-115.352;2023-07-13T01:18:21;27.90;;;7.60;;
76393;SDS011;65216;51.090;-115.352;2023-07-13T01:23:28;31.30;;;7.40;;
76393;SDS011;65216;51.090;-115.352;2023-07-13T01:26:00;24.00;;;6.90;;
76393;SDS011;65216;51.090;-115.352;2023-07-13T01:28:31;21.40;;;7.90;;
76393;SDS011;65216;51.090;-115.352;2023-07-13T01:31:03;24.10;;;7.20;;
76393;SDS011;65216;51.090;-115.352;2023-07-13T01:33:31;25.10;;;7.10;;
76393;SDS011;65216;51.090;-115.352;2023-07-13T01:35:57;23.90;;;7.50;;
76393;SDS011;65216;51.090;-115.352;2023-07-13T01:38:24;24.10;;;7.10;;
76393;SDS011;65216;51.090;-115.352;2023-07-13T01:40:52;25.40;;;6.50;;
76393;SDS011;65216;51.090;-115.352;2023-07-13T01:43:20;33.20;;;8.30;;
76393;SDS011;65216;51.090;-115.352;2023-07-13T01:45:48;21.40;;;7.50;;
76393;SDS011;65216;51.090;-115.352;2023-07-13T01:48:15;22.80;;;7.30;;
76393;SDS011;65216;51.090;-115.352;2023-07-13T01:50:44;22.60;;;7.20;;
76393;SDS011;65216;51.090;-115.352;2023-07-13T01:53:11;24.00;;;7.40;;
76393;SDS011;65216;51.090;-115.352;2023-07-13T01:55:38;30.60;;;7.00;;
76393;SDS011;65216;51.090;-115.352;2023-07-13T01:58:08;27.70;;;7.60;;
76393;SDS011;65216;51.090;-115.352;2023-07-13T02:00:38;32.00;;;7.60;;
76393;SDS011;65216;51.090;-115.352;2023-07-13T02:03:05;28.70;;;7.20;;
76393;SDS011;65216;51.090;-115.352;2023-07-13T02:05:32;22.70;;;7.00;;
76393;SDS011;65216;51.090;-115.352;2023-07-13T02:07:59;28.70;;;7.90;;
76393;SDS011;65216;51.090;-115.352;2023-07-13T02:10:26;29.30;;;7.70;;
76393;SDS011;65216;51.090;-115.352;2023-07-13T02:12:54;28.20;;;7.70;;
76393;SDS011;65216;51.090;-115.352;2023-07-13T02:15:21;23.90;;;7.10;;
76393;SDS011;65216;51.090;-115.352;2023-07-13T02:17:51;27.20;;;7.10;;
76393;SDS011;65216;51.090;-115.352;2023-07-13T02:20:20;24.40;;;6.80;;
76393;SDS011;65216;51.090;-115.352;2023-07-13T02:22:47;27.80;;;7.40;;
76393;SDS011;65216;51.090;-115.352;2023-07-13T02:25:14;29.90;;;7.00;;
76393;SDS011;65216;51.090;-115.352;2023-07-13T02:27:41;36.60;;;7.60;;
76393;SDS011;65216;51.090;-115.352;2023-07-13T02:30:11;27.80;;;7.80;;
76393;SDS011;65216;51.090;-115.352;2023-07-13T02:32:38;31.50;;;7.30;;
76393;SDS011;65216;51.090;-115.352;2023-07-13T02:35:08;27.10;;;7.20;;
76393;SDS011;65216;51.090;-115.352;2023-07-13T02:37:38;34.20;;;7.70;;
76393;SDS011;65216;51.090;-115.352;2023-07-13T02:40:06;27.40;;;7.50;;
76393;SDS011;65216;51.090;-115.352;2023-07-13T02:42:34;24.90;;;6.90;;
76393;SDS011;65216;51.090;-115.352;2023-07-13T02:45:01;29.10;;;7.10;;
76393;SDS011;65216;51.090;-115.352;2023-07-13T02:47:35;22.50;;;8.00;;
76393;SDS011;65216;51.090;-115.352;2023-07-13T02:50:03;20.80;;;6.90;;
76393;SDS011;65216;51.090;-115.352;2023-07-13T02:52:30;29.20;;;7.70;;
76393;SDS011;65216;51.090;-115.352;2023-07-13T02:54:57;28.70;;;7.30;;
76393;SDS011;65216;51.090;-115.352;2023-07-13T02:57:24;26.90;;;7.60;;
76393;SDS011;65216;51.090;-115.352;2023-07-13T02:59:52;24.40;;;7.70;;
76393;SDS011;65216;51.090;-115.352;2023-07-13T03:02:22;24.90;;;6.90;;
76393;SDS011;65216;51.090;-115.352;2023-07-13T03:04:49;24.20;;;7.50;;
76393;SDS011;65216;51.090;-115.352;2023-07-13T03:07:16;25.30;;;7.40;;
76393;SDS011;65216;51.090;-115.352;2023-07-13T03:09:43;24.60;;;7.50;;
76393;SDS011;65216;51.090;-115.352;2023-07-13T03:12:10;23.90;;;6.90;;
76393;SDS011;65216;51.090;-115.352;2023-07-13T03:14:37;20.20;;;6.90;;
76393;SDS011;65216;51.090;-115.352;2023-07-13T03:17:07;17.50;;;7.50;;
76393;SDS011;65216;51.090;-115.352;2023-07-13T03:19:33;21.30;;;7.20;;
76393;SDS011;65216;51.090;-115.352;2023-07-13T03:22:00;17.60;;;6.90;;
76393;SDS011;65216;51.090;-115.352;2023-07-13T03:24:33;18.50;;;6.80;;
76393;SDS011;65216;51.090;-115.352;2023-07-13T03:27:03;17.20;;;7.20;;
76393;SDS011;65216;51.090;-115.352;2023-07-13T03:29:37;16.70;;;6.90;;
76393;SDS011;65216;51.090;-115.352;2023-07-13T03:32:04;16.80;;;6.40;;
76393;SDS011;65216;51.090;-115.352;2023-07-13T03:34:32;20.50;;;6.50;;
76393;SDS011;65216;51.090;-115.352;2023-07-13T03:37:01;13.30;;;6.00;;
76393;SDS011;65216;51.090;-115.352;2023-07-13T03:39:31;16.30;;;6.40;;
76393;SDS011;65216;51.090;-115.352;2023-07-13T03:41:58;22.00;;;6.50;;
76393;SDS011;65216;51.090;-115.352;2023-07-13T03:44:25;17.70;;;6.80;;
76393;SDS011;65216;51.090;-115.352;2023-07-13T03:47:02;14.60;;;6.30;;
76393;SDS011;65216;51.090;-115.352;2023-07-13T03:49:28;21.40;;;6.50;;
76393;SDS011;65216;51.090;-115.352;2023-07-13T03:51:55;25.30;;;6.30;;
76393;SDS011;65216;51.090;-115.352;2023-07-13T03:54:22;16.80;;;6.00;;
76393;SDS011;65216;51.090;-115.352;2023-07-13T03:56:49;14.90;;;6.20;;
76393;SDS011;65216;51.090;-115.352;2023-07-13T03:59:16;14.70;;;5.60;;
76393;SDS011;65216;51.090;-115.352;2023-07-13T04:01:46;10.80;;;5.40;;
76393;SDS011;65216;51.090;-115.352;2023-07-13T04:04:16;15.60;;;5.60;;
76393;SDS011;65216;51.090;-115.352;2023-07-13T04:06:42;11.00;;;5.70;;
76393;SDS011;65216;51.090;-115.352;2023-07-13T04:09:09;13.00;;;5.90;;
76393;SDS011;65216;51.090;-115.352;2023-07-13T04:11:36;11.70;;;5.30;;
76393;SDS011;65216;51.090;-115.352;2023-07-13T04:14:06;11.10;;;5.60;;
76393;SDS011;65216;51.090;-115.352;2023-07-13T04:16:33;12.50;;;5.20;;
76393;SDS011;65216;51.090;-115.352;2023-07-13T04:19:00;12.90;;;5.70;;
76393;SDS011;65216;51.090;-115.352;2023-07-13T04:21:28;9.50;;;5.00;;
76393;SDS011;65216;51.090;-115.352;2023-07-13T04:23:56;10.20;;;5.40;;
76393;SDS011;65216;51.090;-115.352;2023-07-13T04:26:27;12.60;;;6.10;;
76393;SDS011;65216;51.090;-115.352;2023-07-13T04:28:53;9.70;;;5.70;;
76393;SDS011;65216;51.090;-115.352;2023-07-13T04:31:21;11.60;;;5.60;;
76393;SDS011;65216;51.090;-115.352;2023-07-13T04:33:51;10.70;;;5.90;;
76393;SDS011;65216;51.090;-115.352;2023-07-13T04:36:21;8.90;;;5.60;;
76393;SDS011;65216;51.090;-115.352;2023-07-13T04:38:48;8.50;;;5.40;;
76393;SDS011;65216;51.090;-115.352;2023-07-13T04:41:15;9.50;;;5.40;;
76393;SDS011;65216;51.090;-115.352;2023-07-13T04:43:42;8.10;;;5.20;;
76393;SDS011;65216;51.090;-115.352;2023-07-13T04:46:17;8.20;;;5.10;;
76393;SDS011;65216;51.090;-115.352;2023-07-13T04:48:46;8.70;;;6.20;;
76393;SDS011;65216;51.090;-115.352;2023-07-13T04:51:19;7.40;;;5.10;;
76393;SDS011;65216;51.090;-115.352;2023-07-13T04:53:46;8.80;;;5.60;;
76393;SDS011;65216;51.090;-115.352;2023-07-13T04:56:13;9.00;;;5.60;;
76393;SDS011;65216;51.090;-115.352;2023-07-13T04:58:42;7.50;;;5.80;;
76393;SDS011;65216;51.090;-115.352;2023-07-13T05:01:10;9.10;;;5.50;;
76393;SDS011;65216;51.090;-115.352;2023-07-13T05:03:37;7.60;;;5.60;;
76393;SDS011;65216;51.090;-115.352;2023-07-13T05:06:08;8.80;;;5.80;;
76393;SDS011;65216;51.090;-115.352;2023-07-13T05:08:39;8.50;;;5.80;;
76393;SDS011;65216;51.090;-115.352;2023-07-13T05:11:07;9.40;;;6.40;;
76393;SDS011;65216;51.090;-115.352;2023-07-13T05:13:34;7.00;;;5.70;;
76393;SDS011;65216;51.090;-115.352;2023-07-13T05:16:05;8.40;;;6.20;;
76393;SDS011;65216;51.090;-115.352;2023-07-13T05:18:33;8.00;;;6.10;;
76393;SDS011;65216;51.090;-115.352;2023-07-13T05:21:06;8.70;;;6.30;;
76393;SDS011;65216;51.090;-115.352;2023-07-13T05:23:35;9.60;;;6.70;;
76393;SDS011;65216;51.090;-115.352;2023-07-13T05:26:03;9.40;;;6.90;;
76393;SDS011;65216;51.090;-115.352;2023-07-13T05:28:31;9.40;;;6.60;;
76393;SDS011;65216;51.090;-115.352;2023-07-13T05:30:58;8.70;;;6.50;;
76393;SDS011;65216;51.090;-115.352;2023-07-13T05:33:28;8.60;;;6.70;;
76393;SDS011;65216;51.090;-115.352;2023-07-13T05:35:55;10.60;;;6.60;;
76393;SDS011;65216;51.090;-115.352;2023-07-13T05:38:25;8.60;;;6.70;;
76393;SDS011;65216;51.090;-115.352;2023-07-13T05:40:54;9.60;;;7.10;;
76393;SDS011;65216;51.090;-115.352;2023-07-13T05:43:23;8.20;;;6.60;;
76393;SDS011;65216;51.090;-115.352;2023-07-13T05:45:55;9.10;;;6.40;;
76393;SDS011;65216;51.090;-115.352;2023-07-13T05:48:23;9.90;;;6.50;;
76393;SDS011;65216;51.090;-115.352;2023-07-13T05:50:50;8.30;;;6.10;;
76393;SDS011;65216;51.090;-115.352;2023-07-13T05:53:19;8.40;;;6.40;;
76393;SDS011;65216;51.090;-115.352;2023-07-13T05:55:49;8.80;;;6.70;;
76393;SDS011;65216;51.090;-115.352;2023-07-13T05:58:19;8.90;;;6.80;;
76393;SDS011;65216;51.090;-115.352;2023-07-13T06:00:57;9.00;;;6.70;;
76393;SDS011;65216;51.090;-115.352;2023-07-13T06:03:33;10.80;;;6.10;;
76393;SDS011;65216;51.090;-115.352;2023-07-13T06:06:04;23.00;;;7.60;;
76393;SDS011;65216;51.090;-115.352;2023-07-13T06:08:32;10.10;;;6.90;;
76393;SDS011;65216;51.090;-115.352;2023-07-13T06:13:33;9.50;;;6.30;;
76393;SDS011;65216;51.090;-115.352;2023-07-13T06:16:01;12.10;;;6.20;;
76393;SDS011;65216;51.090;-115.352;2023-07-13T06:18:33;9.90;;;6.20;;
76393;SDS011;65216;51.090;-115.352;2023-07-13T06:21:16;11.00;;;6.70;;
76393;SDS011;65216;51.090;-115.352;2023-07-13T06:23:47;9.10;;;6.00;;
76393;SDS011;65216;51.090;-115.352;2023-07-13T06:26:18;8.90;;;6.30;;
76393;SDS011;65216;51.090;-115.352;2023-07-13T06:28:46;10.90;;;6.60;;
76393;SDS011;65216;51.090;-115.352;2023-07-13T06:31:14;10.00;;;7.50;;
76393;SDS011;65216;51.090;-115.352;2023-07-13T06:33:45;11.10;;;7.80;;
76393;SDS011;65216;51.090;-115.352;2023-07-13T06:36:12;10.50;;;8.10;;
76393;SDS011;65216;51.090;-115.352;2023-07-13T06:38:41;12.30;;;9.00;;
76393;SDS011;65216;51.090;-115.352;2023-07-13T06:41:11;13.60;;;9.80;;
76393;SDS011;65216;51.090;-115.352;2023-07-13T06:43:41;14.10;;;10.00;;
76393;SDS011;65216;51.090;-115.352;2023-07-13T06:46:10;16.60;;;11.20;;
76393;SDS011;65216;51.090;-115.352;2023-07-13T06:48:38;15.70;;;11.10;;
76393;SDS011;65216;51.090;-115.352;2023-07-13T06:51:05;17.00;;;11.90;;
76393;SDS011;65216;51.090;-115.352;2023-07-13T06:53:35;18.50;;;12.90;;
76393;SDS011;65216;51.090;-115.352;2023-07-13T06:56:02;17.60;;;12.60;;
76393;SDS011;65216;51.090;-115.352;2023-07-13T06:58:29;17.60;;;12.90;;
76393;SDS011;65216;51.090;-115.352;2023-07-13T07:00:56;20.20;;;13.60;;
76393;SDS011;65216;51.090;-115.352;2023-07-13T07:03:23;20.50;;;14.70;;
76393;SDS011;65216;51.090;-115.352;2023-07-13T07:05:50;20.70;;;14.60;;
76393;SDS011;65216;51.090;-115.352;2023-07-13T07:08:17;21.40;;;15.30;;
76393;SDS011;65216;51.090;-115.352;2023-07-13T07:10:47;23.60;;;16.90;;
76393;SDS011;65216;51.090;-115.352;2023-07-13T07:13:17;23.20;;;16.10;;
76393;SDS011;65216;51.090;-115.352;2023-07-13T07:15:44;26.60;;;17.20;;
76393;SDS011;65216;51.090;-115.352;2023-07-13T07:18:11;26.00;;;17.90;;
76393;SDS011;65216;51.090;-115.352;2023-07-13T07:20:38;24.50;;;17.70;;
76393;SDS011;65216;51.090;-115.352;2023-07-13T07:23:05;27.60;;;18.00;;
76393;SDS011;65216;51.090;-115.352;2023-07-13T07:25:32;28.40;;;18.50;;
76393;SDS011;65216;51.090;-115.352;2023-07-13T07:28:03;25.00;;;17.40;;
76393;SDS011;65216;51.090;-115.352;2023-07-13T07:30:30;27.70;;;18.70;;
76393;SDS011;65216;51.090;-115.352;2023-07-13T07:32:57;26.80;;;18.90;;
76393;SDS011;65216;51.090;-115.352;2023-07-13T07:35:24;28.50;;;20.00;;
76393;SDS011;65216;51.090;-115.352;2023-07-13T07:37:51;27.70;;;19.10;;
76393;SDS011;65216;51.090;-115.352;2023-07-13T07:40:19;27.60;;;19.30;;
76393;SDS011;65216;51.090;-115.352;2023-07-13T07:42:46;30.60;;;20.70;;
76393;SDS011;65216;51.090;-115.352;2023-07-13T07:45:14;28.80;;;19.60;;
76393;SDS011;65216;51.090;-115.352;2023-07-13T07:47:41;29.40;;;21.30;;
76393;SDS011;65216;51.090;-115.352;2023-07-13T07:50:09;30.80;;;20.70;;
76393;SDS011;65216;51.090;-115.352;2023-07-13T07:52:38;28.20;;;20.70;;
76393;SDS011;65216;51.090;-115.352;2023-07-13T07:55:06;28.20;;;20.10;;
76393;SDS011;65216;51.090;-115.352;2023-07-13T07:57:34;30.10;;;20.70;;
76393;SDS011;65216;51.090;-115.352;2023-07-13T08:00:05;29.70;;;20.40;;
76393;SDS011;65216;51.090;-115.352;2023-07-13T08:02:32;30.40;;;21.00;;
76393;SDS011;65216;51.090;-115.352;2023-07-13T08:05:02;30.10;;;21.60;;
76393;SDS011;65216;51.090;-115.352;2023-07-13T08:07:33;30.50;;;21.40;;
76393;SDS011;65216;51.090;-115.352;2023-07-13T08:10:00;32.70;;;21.70;;
76393;SDS011;65216;51.090;-115.352;2023-07-13T08:12:32;31.20;;;21.80;;
76393;SDS011;65216;51.090;-115.352;2023-07-13T08:15:05;30.80;;;23.00;;
76393;SDS011;65216;51.090;-115.352;2023-07-13T08:17:39;33.90;;;22.60;;
76393;SDS011;65216;51.090;-115.352;2023-07-13T08:20:06;35.30;;;24.00;;
76393;SDS011;65216;51.090;-115.352;2023-07-13T08:22:37;35.50;;;23.90;;
76393;SDS011;65216;51.090;-115.352;2023-07-13T08:25:04;31.50;;;23.30;;
76393;SDS011;65216;51.090;-115.352;2023-07-13T08:27:33;33.90;;;24.20;;
76393;SDS011;65216;51.090;-115.352;2023-07-13T08:29:59;36.10;;;24.70;;
76393;SDS011;65216;51.090;-115.352;2023-07-13T08:32:27;34.90;;;24.60;;
76393;SDS011;65216;51.090;-115.352;2023-07-13T08:34:53;35.10;;;24.10;;
76393;SDS011;65216;51.090;-115.352;2023-07-13T08:37:20;35.20;;;24.50;;
76393;SDS011;65216;51.090;-115.352;2023-07-13T08:39:47;36.60;;;25.60;;
76393;SDS011;65216;51.090;-115.352;2023-07-13T08:42:39;35.10;;;24.90;;
76393;SDS011;65216;51.090;-115.352;2023-07-13T08:45:22;35.60;;;24.10;;
76393;SDS011;65216;51.090;-115.352;2023-07-13T08:47:57;36.90;;;25.90;;
76393;SDS011;65216;51.090;-115.352;2023-07-13T08:50:37;35.60;;;25.50;;
76393;SDS011;65216;51.090;-115.352;2023-07-13T08:53:18;35.60;;;25.20;;
76393;SDS011;65216;51.090;-115.352;2023-07-13T08:55:46;35.50;;;24.90;;
76393;SDS011;65216;51.090;-115.352;2023-07-13T08:58:15;36.60;;;25.10;;
76393;SDS011;65216;51.090;-115.352;2023-07-13T09:03:22;34.40;;;26.30;;
76393;SDS011;65216;51.090;-115.352;2023-07-13T09:05:58;36.50;;;25.90;;
76393;SDS011;65216;51.090;-115.352;2023-07-13T09:08:39;36.40;;;25.00;;
76393;SDS011;65216;51.090;-115.352;2023-07-13T09:14:43;36.60;;;25.00;;
76393;SDS011;65216;51.090;-115.352;2023-07-13T09:17:41;36.30;;;24.80;;
76393;SDS011;65216;51.090;-115.352;2023-07-13T09:20:47;38.70;;;25.90;;
76393;SDS011;65216;51.090;-115.352;2023-07-13T09:23:24;36.50;;;25.60;;
76393;SDS011;65216;51.090;-115.352;2023-07-13T09:26:02;36.60;;;26.20;;
76393;SDS011;65216;51.090;-115.352;2023-07-13T09:28:42;36.50;;;26.10;;
76393;SDS011;65216;51.090;-115.352;2023-07-13T09:31:18;37.40;;;26.20;;
76393;SDS011;65216;51.090;-115.352;2023-07-13T09:34:00;36.60;;;25.60;;
76393;SDS011;65216;51.090;-115.352;2023-07-13T09:36:35;36.20;;;26.00;;
76393;SDS011;65216;51.090;-115.352;2023-07-13T09:45:00;35.80;;;25.10;;
76393;SDS011;65216;51.090;-115.352;2023-07-13T09:47:30;37.00;;;24.70;;
76393;SDS011;65216;51.090;-115.352;2023-07-13T09:50:04;35.00;;;25.10;;
76393;SDS011;65216;51.090;-115.352;2023-07-13T09:52:45;34.00;;;24.60;;
76393;SDS011;65216;51.090;-115.352;2023-07-13T09:55:31;35.80;;;25.40;;
76393;SDS011;65216;51.090;-115.352;2023-07-13T09:58:24;35.20;;;25.30;;
76393;SDS011;65216;51.090;-115.352;2023-07-13T10:01:02;33.90;;;23.90;;
76393;SDS011;65216;51.090;-115.352;2023-07-13T10:03:34;34.90;;;24.90;;
76393;SDS011;65216;51.090;-115.352;2023-07-13T10:06:14;34.70;;;24.50;;
76393;SDS011;65216;51.090;-115.352;2023-07-13T10:08:50;35.50;;;24.50;;
76393;SDS011;65216;51.090;-115.352;2023-07-13T10:13:59;34.60;;;24.50;;
76393;SDS011;65216;51.090;-115.352;2023-07-13T10:16:33;36.30;;;25.20;;
76393;SDS011;65216;51.090;-115.352;2023-07-13T10:19:19;34.60;;;25.40;;
76393;SDS011;65216;51.090;-115.352;2023-07-13T10:21:58;34.30;;;23.40;;
76393;SDS011;65216;51.090;-115.352;2023-07-13T10:24:33;34.50;;;24.10;;
76393;SDS011;65216;51.090;-115.352;2023-07-13T10:27:20;34.00;;;24.00;;
76393;SDS011;65216;51.090;-115.352;2023-07-13T10:30:15;35.40;;;24.70;;
76393;SDS011;65216;51.090;-115.352;2023-07-13T10:32:52;33.70;;;23.90;;
76393;SDS011;65216;51.090;-115.352;2023-07-13T10:35:21;33.80;;;24.60;;
76393;SDS011;65216;51.090;-115.352;2023-07-13T10:43:36;34.10;;;24.70;;
76393;SDS011;65216;51.090;-115.352;2023-07-13T10:46:11;33.90;;;24.70;;
76393;SDS011;65216;51.090;-115.352;2023-07-13T10:48:43;35.10;;;23.90;;
76393;SDS011;65216;51.090;-115.352;2023-07-13T10:51:18;34.00;;;23.70;;
76393;SDS011;65216;51.090;-115.352;2023-07-13T10:57:07;33.50;;;23.10;;
76393;SDS011;65216;51.090;-115.352;2023-07-13T10:59:35;33.80;;;23.20;;
76393;SDS011;65216;51.090;-115.352;2023-07-13T11:05:13;33.00;;;23.80;;
76393;SDS011;65216;51.090;-115.352;2023-07-13T11:08:13;30.10;;;22.10;;
76393;SDS011;65216;51.090;-115.352;2023-07-13T11:14:00;31.00;;;22.00;;
76393;SDS011;65216;51.090;-115.352;2023-07-13T11:16:48;31.20;;;21.80;;
76393;SDS011;65216;51.090;-115.352;2023-07-13T11:19:24;31.00;;;24.10;;
76393;SDS011;65216;51.090;-115.352;2023-07-13T11:24:49;31.10;;;22.60;;
76393;SDS011;65216;51.090;-115.352;2023-07-13T11:27:42;29.70;;;21.80;;
76393;SDS011;65216;51.090;-115.352;2023-07-13T11:30:31;31.30;;;22.00;;
76393;SDS011;65216;51.090;-115.352;2023-07-13T11:35:53;32.00;;;22.80;;
76393;SDS011;65216;51.090;-115.352;2023-07-13T11:43:54;32.50;;;21.80;;
76393;SDS011;65216;51.090;-115.352;2023-07-13T11:46:25;31.60;;;22.80;;
76393;SDS011;65216;51.090;-115.352;2023-07-13T11:48:54;31.40;;;22.70;;
76393;SDS011;65216;51.090;-115.352;2023-07-13T11:51:23;32.20;;;23.00;;
76393;SDS011;65216;51.090;-115.352;2023-07-13T11:54:10;31.70;;;22.80;;
76393;SDS011;65216;51.090;-115.352;2023-07-13T11:57:07;31.70;;;21.40;;
76393;SDS011;65216;51.090;-115.352;2023-07-13T11:59:49;32.30;;;22.20;;
76393;SDS011;65216;51.090;-115.352;2023-07-13T12:02:26;31.70;;;21.10;;
76393;SDS011;65216;51.090;-115.352;2023-07-13T12:05:05;31.30;;;21.40;;
76393;SDS011;65216;51.090;-115.352;2023-07-13T12:07:36;30.90;;;21.90;;
76393;SDS011;65216;51.090;-115.352;2023-07-13T12:10:21;31.70;;;21.40;;
76393;SDS011;65216;51.090;-115.352;2023-07-13T12:12:53;31.40;;;22.50;;
76393;SDS011;65216;51.090;-115.352;2023-07-13T12:15:40;31.80;;;22.30;;
76393;SDS011;65216;51.090;-115.352;2023-07-13T12:18:16;32.00;;;21.50;;
76393;SDS011;65216;51.090;-115.352;2023-07-13T12:20:50;29.60;;;22.10;;
76393;SDS011;65216;51.090;-115.352;2023-07-13T12:25:52;31.60;;;21.50;;
76393;SDS011;65216;51.090;-115.352;2023-07-13T12:31:14;31.00;;;20.80;;
76393;SDS011;65216;51.090;-115.352;2023-07-13T12:33:56;30.70;;;21.60;;
76393;SDS011;65216;51.090;-115.352;2023-07-13T12:36:25;31.80;;;22.60;;
76393;SDS011;65216;51.090;-115.352;2023-07-13T12:38:55;31.30;;;22.40;;
76393;SDS011;65216;51.090;-115.352;2023-07-13T12:41:33;30.90;;;22.90;;
76393;SDS011;65216;51.090;-115.352;2023-07-13T12:44:00;30.50;;;23.00;;
76393;SDS011;65216;51.090;-115.352;2023-07-13T12:46:30;30.00;;;22.30;;
76393;SDS011;65216;51.090;-115.352;2023-07-13T12:48:57;32.30;;;22.00;;
76393;SDS011;65216;51.090;-115.352;2023-07-13T12:51:28;33.00;;;23.50;;
76393;SDS011;65216;51.090;-115.352;2023-07-13T12:54:12;30.30;;;21.30;;
76393;SDS011;65216;51.090;-115.352;2023-07-13T12:56:45;30.90;;;21.40;;
76393;SDS011;65216;51.090;-115.352;2023-07-13T12:59:20;30.40;;;21.40;;
76393;SDS011;65216;51.090;-115.352;2023-07-13T13:01:49;31.60;;;21.80;;
76393;SDS011;65216;51.090;-115.352;2023-07-13T13:04:17;30.60;;;21.60;;
76393;SDS011;65216;51.090;-115.352;2023-07-13T13:06:48;34.60;;;23.30;;
76393;SDS011;65216;51.090;-115.352;2023-07-13T13:09:16;32.80;;;23.20;;
76393;SDS011;65216;51.090;-115.352;2023-07-13T13:11:46;33.80;;;23.30;;
76393;SDS011;65216;51.090;-115.352;2023-07-13T13:14:13;33.00;;;23.90;;
76393;SDS011;65216;51.090;-115.352;2023-07-13T13:16:50;33.30;;;23.60;;
76393;SDS011;65216;51.090;-115.352;2023-07-13T13:19:25;31.40;;;22.80;;
76393;SDS011;65216;51.090;-115.352;2023-07-13T13:21:55;31.80;;;23.40;;
76393;SDS011;65216;51.090;-115.352;2023-07-13T13:24:27;32.40;;;23.20;;
76393;SDS011;65216;51.090;-115.352;2023-07-13T13:26:57;33.80;;;23.70;;
76393;SDS011;65216;51.090;-115.352;2023-07-13T13:29:25;31.20;;;22.40;;
76393;SDS011;65216;51.090;-115.352;2023-07-13T13:31:53;33.10;;;22.80;;
76393;SDS011;65216;51.090;-115.352;2023-07-13T13:34:22;32.00;;;21.90;;
76393;SDS011;65216;51.090;-115.352;2023-07-13T13:36:50;33.00;;;22.90;;
76393;SDS011;65216;51.090;-115.352;2023-07-13T13:41:53;33.20;;;22.70;;
76393;SDS011;65216;51.090;-115.352;2023-07-13T13:44:23;34.40;;;23.70;;
76393;SDS011;65216;51.090;-115.352;2023-07-13T13:46:55;31.70;;;22.40;;
76393;SDS011;65216;51.090;-115.352;2023-07-13T13:49:27;32.60;;;22.60;;
76393;SDS011;65216;51.090;-115.352;2023-07-13T13:51:57;33.20;;;23.10;;
76393;SDS011;65216;51.090;-115.352;2023-07-13T13:54:25;32.10;;;23.10;;
76393;SDS011;65216;51.090;-115.352;2023-07-13T13:56:53;32.30;;;22.80;;
76393;SDS011;65216;51.090;-115.352;2023-07-13T13:59:26;32.00;;;22.30;;
76393;SDS011;65216;51.090;-115.352;2023-07-13T14:01:53;34.30;;;23.20;;
76393;SDS011;65216;51.090;-115.352;2023-07-13T14:04:21;34.60;;;23.30;;
76393;SDS011;65216;51.090;-115.352;2023-07-13T14:06:49;32.60;;;22.70;;
76393;SDS011;65216;51.090;-115.352;2023-07-13T14:09:18;33.00;;;22.70;;
76393;SDS011;65216;51.090;-115.352;2023-07-13T14:11:47;32.60;;;22.40;;
76393;SDS011;65216;51.090;-115.352;2023-07-13T14:14:19;33.00;;;24.30;;
76393;SDS011;65216;51.090;-115.352;2023-07-13T14:16:54;34.00;;;23.10;;
76393;SDS011;65216;51.090;-115.352;2023-07-13T14:19:23;31.60;;;22.20;;
76393;SDS011;65216;51.090;-115.352;2023-07-13T14:21:50;32.10;;;22.30;;
76393;SDS011;65216;51.090;-115.352;2023-07-13T14:24:19;31.10;;;22.20;;
76393;SDS011;65216;51.090;-115.352;2023-07-13T14:26:47;31.80;;;21.80;;
76393;SDS011;65216;51.090;-115.352;2023-07-13T14:29:17;33.60;;;23.10;;
76393;SDS011;65216;51.090;-115.352;2023-07-13T14:31:48;34.30;;;23.40;;
76393;SDS011;65216;51.090;-115.352;2023-07-13T14:34:17;31.10;;;22.90;;
76393;SDS011;65216;51.090;-115.352;2023-07-13T14:36:47;32.80;;;22.00;;
76393;SDS011;65216;51.090;-115.352;2023-07-13T14:39:20;32.90;;;23.90;;
76393;SDS011;65216;51.090;-115.352;2023-07-13T14:41:52;32.00;;;22.70;;
76393;SDS011;65216;51.090;-115.352;2023-07-13T14:44:30;34.40;;;23.40;;
76393;SDS011;65216;51.090;-115.352;2023-07-13T14:47:02;33.70;;;22.90;;
76393;SDS011;65216;51.090;-115.352;2023-07-13T14:49:38;33.70;;;23.00;;
76393;SDS011;65216;51.090;-115.352;2023-07-13T14:52:18;33.40;;;22.70;;
76393;SDS011;65216;51.090;-115.352;2023-07-13T14:54:47;34.00;;;22.90;;
76393;SDS011;65216;51.090;-115.352;2023-07-13T14:57:17;35.90;;;22.50;;
76393;SDS011;65216;51.090;-115.352;2023-07-13T15:00:11;35.40;;;23.20;;
76393;SDS011;65216;51.090;-115.352;2023-07-13T15:02:45;36.50;;;23.40;;
76393;SDS011;65216;51.090;-115.352;2023-07-13T15:05:26;35.80;;;22.20;;
76393;SDS011;65216;51.090;-115.352;2023-07-13T15:07:58;36.40;;;22.30;;
76393;SDS011;65216;51.090;-115.352;2023-07-13T15:10:29;36.10;;;22.90;;